San Antonio, TX

11:55 PM CST on February 06, 2016 (GMT -0600)
San Antonio International | | Change Station
CLOSE
Current Station
Airport
Location: San Antonio,
Elevation: 794 ft
Nearby Weather Stations

Elev 794 ft 29.53 °N, 98.47 °W | Updated 4 minutes ago

Clear
Clear
42 °F
Feels Like 42 °F
N
0
Wind Variable Wind from North

Today
High -- | Low -- °F
--% Chance of Precip.
Yesterday
High -- | Low -- °F
Precip. -- in
Pressure 30.34 in
Visibility 10.0 miles
Clouds Few 25000 ft
Dew Point 26 °F
Humidity 53%
Rainfall 0.00 in
Snow Depth Not available.
7:20 AM 6:15 PM
Waning Crescent, 2% visible
METAR KSAT 070551Z 00000KT 10SM FEW250 06/M03 A3037 RMK AO2 SLP274 T00561033 10144 20039 401780039 50001
Pressure 30.34 in
Visibility 10.0 miles
Clouds Few 25000 ft
Dew Point 26 °F
Humidity 53%
Rainfall 0.00 in
Snow Depth Not available.
7:20 AM 6:15 PM
Waning Crescent, 2% visible
METAR KSAT 070551Z 00000KT 10SM FEW250 06/M03 A3037 RMK AO2 SLP274 T00561033 10144 20039 401780039 50001

10-Day Weather Forecast

Almanac

Astronomy

Feb. 06, 2016 Rise Set
Actual Time
Civil Twilight
Nautical Twilight
Astronomical Twilight
Moon
Length of Visible Light
Length of Day
Tomorrow will be .
, % of the Moon is Illuminated

Today's Extremes

State Highs State Lows

Community

WunderPhotos

Upload Photos

1,891,167 photos uploaded!

WunderBlog® & News

Nearby

Air Quality

  Air Quality AQ Index Pollutant
Not available.

Snow Depth

Station Depth Elevation

Earthquake Activity

City Distance Mag. Time & Date
Minimum magnitude displayed is 2.5.

Coastal Water Temperatures

Place Temperature

Stations

Nearby Weather Stations

Station Location Temp. Windchill Dew Point Humidity Wind Precip. Elev Updated Type
                   

Watches & Warnings

There are currently no watches in effect.